sensor_id;sensor_type;location;lat;lon;timestamp;P1;durP1;ratioP1;P2;durP2;ratioP2
8592;SDS011;4334;49.982;8.398;2022-08-01T00:01:33;1.45;;;1.35;;
8592;SDS011;4334;49.982;8.398;2022-08-01T00:04:01;2.85;;;1.60;;
8592;SDS011;4334;49.982;8.398;2022-08-01T00:06:28;2.25;;;1.50;;
8592;SDS011;4334;49.982;8.398;2022-08-01T00:08:55;2.13;;;1.60;;
8592;SDS011;4334;49.982;8.398;2022-08-01T00:11:23;2.20;;;1.45;;
8592;SDS011;4334;49.982;8.398;2022-08-01T00:13:49;2.60;;;1.40;;
8592;SDS011;4334;49.982;8.398;2022-08-01T00:16:16;2.00;;;1.50;;
8592;SDS011;4334;49.982;8.398;2022-08-01T00:18:43;2.20;;;1.60;;
8592;SDS011;4334;49.982;8.398;2022-08-01T00:21:11;2.13;;;1.40;;
8592;SDS011;4334;49.982;8.398;2022-08-01T00:23:38;2.47;;;1.50;;
8592;SDS011;4334;49.982;8.398;2022-08-01T00:26:04;2.10;;;1.48;;
8592;SDS011;4334;49.982;8.398;2022-08-01T00:28:31;1.90;;;1.40;;
8592;SDS011;4334;49.982;8.398;2022-08-01T00:30:58;1.88;;;1.50;;
8592;SDS011;4334;49.982;8.398;2022-08-01T00:33:24;1.60;;;1.38;;
8592;SDS011;4334;49.982;8.398;2022-08-01T00:35:51;2.33;;;1.55;;
8592;SDS011;4334;49.982;8.398;2022-08-01T00:38:19;3.60;;;1.40;;
8592;SDS011;4334;49.982;8.398;2022-08-01T00:40:46;1.70;;;1.50;;
8592;SDS011;4334;49.982;8.398;2022-08-01T00:43:13;3.38;;;1.75;;
8592;SDS011;4334;49.982;8.398;2022-08-01T00:45:41;2.05;;;1.50;;
8592;SDS011;4334;49.982;8.398;2022-08-01T00:48:08;1.40;;;1.30;;
8592;SDS011;4334;49.982;8.398;2022-08-01T00:50:35;2.33;;;1.50;;
8592;SDS011;4334;49.982;8.398;2022-08-01T00:53:02;2.15;;;1.50;;
8592;SDS011;4334;49.982;8.398;2022-08-01T00:55:30;1.70;;;1.50;;
8592;SDS011;4334;49.982;8.398;2022-08-01T00:57:57;1.38;;;1.27;;
8592;SDS011;4334;49.982;8.398;2022-08-01T01:00:25;3.47;;;1.67;;
8592;SDS011;4334;49.982;8.398;2022-08-01T01:02:52;1.60;;;1.50;;
8592;SDS011;4334;49.982;8.398;2022-08-01T01:05:19;3.25;;;1.65;;
8592;SDS011;4334;49.982;8.398;2022-08-01T01:07:48;3.17;;;1.50;;
8592;SDS011;4334;49.982;8.398;2022-08-01T01:10:21;1.77;;;1.50;;
8592;SDS011;4334;49.982;8.398;2022-08-01T01:12:55;2.35;;;1.60;;
8592;SDS011;4334;49.982;8.398;2022-08-01T01:15:29;1.98;;;1.60;;
8592;SDS011;4334;49.982;8.398;2022-08-01T01:18:03;2.88;;;1.50;;
8592;SDS011;4334;49.982;8.398;2022-08-01T01:20:34;2.25;;;1.45;;
8592;SDS011;4334;49.982;8.398;2022-08-01T01:23:12;2.28;;;1.30;;
8592;SDS011;4334;49.982;8.398;2022-08-01T01:25:54;2.17;;;1.50;;
8592;SDS011;4334;49.982;8.398;2022-08-01T01:28:50;1.77;;;1.60;;
8592;SDS011;4334;49.982;8.398;2022-08-01T01:31:26;2.10;;;1.50;;
8592;SDS011;4334;49.982;8.398;2022-08-01T01:33:54;2.97;;;1.58;;
8592;SDS011;4334;49.982;8.398;2022-08-01T01:36:24;2.22;;;1.48;;
8592;SDS011;4334;49.982;8.398;2022-08-01T01:38:53;3.17;;;1.60;;
8592;SDS011;4334;49.982;8.398;2022-08-01T01:41:20;3.03;;;1.60;;
8592;SDS011;4334;49.982;8.398;2022-08-01T01:43:48;1.58;;;1.48;;
8592;SDS011;4334;49.982;8.398;2022-08-01T01:46:19;3.20;;;1.40;;
8592;SDS011;4334;49.982;8.398;2022-08-01T01:48:49;2.43;;;1.40;;
8592;SDS011;4334;49.982;8.398;2022-08-01T01:51:18;3.83;;;1.50;;
8592;SDS011;4334;49.982;8.398;2022-08-01T01:53:48;2.65;;;1.50;;
8592;SDS011;4334;49.982;8.398;2022-08-01T01:56:15;1.73;;;1.40;;
8592;SDS011;4334;49.982;8.398;2022-08-01T01:58:43;2.17;;;1.50;;
8592;SDS011;4334;49.982;8.398;2022-08-01T02:01:12;2.40;;;1.43;;
8592;SDS011;4334;49.982;8.398;2022-08-01T02:03:39;1.40;;;1.30;;
8592;SDS011;4334;49.982;8.398;2022-08-01T02:06:07;1.75;;;1.40;;
8592;SDS011;4334;49.982;8.398;2022-08-01T02:08:34;3.10;;;1.50;;
8592;SDS011;4334;49.982;8.398;2022-08-01T02:11:03;1.67;;;1.53;;
8592;SDS011;4334;49.982;8.398;2022-08-01T02:13:47;2.77;;;1.70;;
8592;SDS011;4334;49.982;8.398;2022-08-01T02:16:19;1.93;;;1.53;;
8592;SDS011;4334;49.982;8.398;2022-08-01T02:18:48;3.67;;;1.60;;
8592;SDS011;4334;49.982;8.398;2022-08-01T02:21:16;2.77;;;1.60;;
8592;SDS011;4334;49.982;8.398;2022-08-01T02:23:49;2.33;;;1.77;;
8592;SDS011;4334;49.982;8.398;2022-08-01T02:26:17;2.80;;;1.70;;
8592;SDS011;4334;49.982;8.398;2022-08-01T02:28:46;1.90;;;1.70;;
8592;SDS011;4334;49.982;8.398;2022-08-01T02:31:16;2.77;;;1.87;;
8592;SDS011;4334;49.982;8.398;2022-08-01T02:33:50;2.60;;;2.03;;
8592;SDS011;4334;49.982;8.398;2022-08-01T02:36:23;1.90;;;1.80;;
8592;SDS011;4334;49.982;8.398;2022-08-01T02:38:51;2.37;;;1.70;;
8592;SDS011;4334;49.982;8.398;2022-08-01T02:41:21;2.47;;;2.00;;
8592;SDS011;4334;49.982;8.398;2022-08-01T02:43:49;3.07;;;1.73;;
8592;SDS011;4334;49.982;8.398;2022-08-01T02:46:21;3.37;;;2.00;;
8592;SDS011;4334;49.982;8.398;2022-08-01T02:48:53;4.40;;;1.90;;
8592;SDS011;4334;49.982;8.398;2022-08-01T02:51:24;3.53;;;1.83;;
8592;SDS011;4334;49.982;8.398;2022-08-01T02:53:52;1.90;;;1.80;;
8592;SDS011;4334;49.982;8.398;2022-08-01T02:56:20;2.30;;;1.80;;
8592;SDS011;4334;49.982;8.398;2022-08-01T02:58:48;2.93;;;1.80;;
8592;SDS011;4334;49.982;8.398;2022-08-01T03:01:17;1.67;;;1.57;;
8592;SDS011;4334;49.982;8.398;2022-08-01T03:03:45;2.90;;;1.80;;
8592;SDS011;4334;49.982;8.398;2022-08-01T03:06:14;3.13;;;1.57;;
8592;SDS011;4334;49.982;8.398;2022-08-01T03:08:41;1.70;;;1.60;;
8592;SDS011;4334;49.982;8.398;2022-08-01T03:11:10;1.80;;;1.60;;
8592;SDS011;4334;49.982;8.398;2022-08-01T03:13:38;2.70;;;1.90;;
8592;SDS011;4334;49.982;8.398;2022-08-01T03:16:08;3.33;;;1.90;;
8592;SDS011;4334;49.982;8.398;2022-08-01T03:18:37;1.80;;;1.53;;
8592;SDS011;4334;49.982;8.398;2022-08-01T03:21:05;2.17;;;1.97;;
8592;SDS011;4334;49.982;8.398;2022-08-01T03:23:35;2.17;;;1.70;;
8592;SDS011;4334;49.982;8.398;2022-08-01T03:26:03;1.90;;;1.70;;
8592;SDS011;4334;49.982;8.398;2022-08-01T03:28:32;4.27;;;1.90;;
8592;SDS011;4334;49.982;8.398;2022-08-01T03:30:59;4.93;;;1.90;;
8592;SDS011;4334;49.982;8.398;2022-08-01T03:33:27;2.87;;;1.90;;
8592;SDS011;4334;49.982;8.398;2022-08-01T03:35:54;2.00;;;1.80;;
8592;SDS011;4334;49.982;8.398;2022-08-01T03:38:23;3.20;;;2.00;;
8592;SDS011;4334;49.982;8.398;2022-08-01T03:40:54;2.73;;;2.03;;
8592;SDS011;4334;49.982;8.398;2022-08-01T03:43:26;2.37;;;1.83;;
8592;SDS011;4334;49.982;8.398;2022-08-01T03:45:58;2.40;;;2.20;;
8592;SDS011;4334;49.982;8.398;2022-08-01T03:48:29;3.20;;;1.80;;
8592;SDS011;4334;49.982;8.398;2022-08-01T03:51:01;3.40;;;2.20;;
8592;SDS011;4334;49.982;8.398;2022-08-01T03:53:30;2.53;;;2.00;;
8592;SDS011;4334;49.982;8.398;2022-08-01T03:55:59;3.87;;;1.90;;
8592;SDS011;4334;49.982;8.398;2022-08-01T03:58:28;1.97;;;1.83;;
8592;SDS011;4334;49.982;8.398;2022-08-01T04:00:56;3.17;;;1.93;;
8592;SDS011;4334;49.982;8.398;2022-08-01T04:03:23;1.50;;;1.40;;
8592;SDS011;4334;49.982;8.398;2022-08-01T04:05:51;1.87;;;1.47;;
8592;SDS011;4334;49.982;8.398;2022-08-01T04:08:17;5.00;;;3.43;;
8592;SDS011;4334;49.982;8.398;2022-08-01T04:10:44;16.20;;;7.60;;
8592;SDS011;4334;49.982;8.398;2022-08-01T04:13:12;24.67;;;9.77;;
8592;SDS011;4334;49.982;8.398;2022-08-01T04:15:39;16.77;;;8.17;;
8592;SDS011;4334;49.982;8.398;2022-08-01T04:18:06;8.80;;;3.00;;
8592;SDS011;4334;49.982;8.398;2022-08-01T04:20:33;9.87;;;5.10;;
8592;SDS011;4334;49.982;8.398;2022-08-01T04:22:59;6.03;;;3.10;;
8592;SDS011;4334;49.982;8.398;2022-08-01T04:25:28;7.53;;;3.80;;
8592;SDS011;4334;49.982;8.398;2022-08-01T04:27:58;4.37;;;2.47;;
8592;SDS011;4334;49.982;8.398;2022-08-01T04:30:31;4.50;;;2.60;;
8592;SDS011;4334;49.982;8.398;2022-08-01T04:33:01;5.43;;;2.50;;
8592;SDS011;4334;49.982;8.398;2022-08-01T04:35:31;13.20;;;3.67;;
8592;SDS011;4334;49.982;8.398;2022-08-01T04:37:58;14.20;;;3.60;;
8592;SDS011;4334;49.982;8.398;2022-08-01T04:40:28;9.30;;;2.93;;
8592;SDS011;4334;49.982;8.398;2022-08-01T04:42:56;7.17;;;2.63;;
8592;SDS011;4334;49.982;8.398;2022-08-01T04:45:23;6.07;;;2.23;;
8592;SDS011;4334;49.982;8.398;2022-08-01T04:47:52;11.15;;;2.97;;
8592;SDS011;4334;49.982;8.398;2022-08-01T04:50:19;19.43;;;5.70;;
8592;SDS011;4334;49.982;8.398;2022-08-01T04:52:47;20.33;;;4.35;;
8592;SDS011;4334;49.982;8.398;2022-08-01T04:55:13;8.63;;;3.10;;
8592;SDS011;4334;49.982;8.398;2022-08-01T04:57:42;5.60;;;2.60;;
8592;SDS011;4334;49.982;8.398;2022-08-01T05:00:11;3.97;;;1.90;;
8592;SDS011;4334;49.982;8.398;2022-08-01T05:02:38;2.65;;;1.70;;
8592;SDS011;4334;49.982;8.398;2022-08-01T05:05:07;1.50;;;1.40;;
8592;SDS011;4334;49.982;8.398;2022-08-01T05:07:35;3.05;;;1.40;;
8592;SDS011;4334;49.982;8.398;2022-08-01T05:10:02;2.97;;;1.83;;
8592;SDS011;4334;49.982;8.398;2022-08-01T05:12:29;2.50;;;1.50;;
8592;SDS011;4334;49.982;8.398;2022-08-01T05:14:56;2.15;;;1.42;;
8592;SDS011;4334;49.982;8.398;2022-08-01T05:17:23;2.17;;;1.52;;
8592;SDS011;4334;49.982;8.398;2022-08-01T05:19:50;3.33;;;1.33;;
8592;SDS011;4334;49.982;8.398;2022-08-01T05:22:18;2.65;;;1.73;;
8592;SDS011;4334;49.982;8.398;2022-08-01T05:24:44;5.75;;;1.48;;
8592;SDS011;4334;49.982;8.398;2022-08-01T05:27:12;2.25;;;1.50;;
8592;SDS011;4334;49.982;8.398;2022-08-01T05:29:38;3.28;;;1.63;;
8592;SDS011;4334;49.982;8.398;2022-08-01T05:32:06;2.30;;;1.38;;
8592;SDS011;4334;49.982;8.398;2022-08-01T05:34:32;3.67;;;1.48;;
8592;SDS011;4334;49.982;8.398;2022-08-01T05:36:59;1.73;;;1.50;;
8592;SDS011;4334;49.982;8.398;2022-08-01T05:39:27;2.58;;;1.38;;
8592;SDS011;4334;49.982;8.398;2022-08-01T05:41:54;2.35;;;1.52;;
8592;SDS011;4334;49.982;8.398;2022-08-01T05:44:21;2.38;;;1.40;;
8592;SDS011;4334;49.982;8.398;2022-08-01T05:46:47;3.00;;;1.40;;
8592;SDS011;4334;49.982;8.398;2022-08-01T05:49:14;2.75;;;1.38;;
8592;SDS011;4334;49.982;8.398;2022-08-01T05:51:41;1.77;;;1.08;;
8592;SDS011;4334;49.982;8.398;2022-08-01T05:54:08;1.98;;;1.30;;
8592;SDS011;4334;49.982;8.398;2022-08-01T05:56:36;2.65;;;1.30;;
8592;SDS011;4334;49.982;8.398;2022-08-01T05:59:02;3.13;;;1.52;;
8592;SDS011;4334;49.982;8.398;2022-08-01T06:01:29;3.00;;;1.55;;
8592;SDS011;4334;49.982;8.398;2022-08-01T06:03:56;1.77;;;1.45;;
8592;SDS011;4334;49.982;8.398;2022-08-01T06:06:23;2.22;;;1.40;;
8592;SDS011;4334;49.982;8.398;2022-08-01T06:08:50;2.55;;;1.40;;
8592;SDS011;4334;49.982;8.398;2022-08-01T06:11:17;3.28;;;1.60;;
8592;SDS011;4334;49.982;8.398;2022-08-01T06:13:46;2.88;;;1.63;;
8592;SDS011;4334;49.982;8.398;2022-08-01T06:16:12;6.15;;;1.70;;
8592;SDS011;4334;49.982;8.398;2022-08-01T06:18:40;1.50;;;1.40;;
8592;SDS011;4334;49.982;8.398;2022-08-01T06:21:07;5.35;;;1.67;;
8592;SDS011;4334;49.982;8.398;2022-08-01T06:23:33;2.28;;;1.50;;
8592;SDS011;4334;49.982;8.398;2022-08-01T06:26:00;1.60;;;1.40;;
8592;SDS011;4334;49.982;8.398;2022-08-01T06:28:27;1.85;;;1.60;;
8592;SDS011;4334;49.982;8.398;2022-08-01T06:30:55;1.77;;;1.38;;
8592;SDS011;4334;49.982;8.398;2022-08-01T06:33:23;2.10;;;1.50;;
8592;SDS011;4334;49.982;8.398;2022-08-01T06:35:50;1.55;;;1.30;;
8592;SDS011;4334;49.982;8.398;2022-08-01T06:38:17;3.10;;;1.50;;
8592;SDS011;4334;49.982;8.398;2022-08-01T06:40:43;3.72;;;1.45;;
8592;SDS011;4334;49.982;8.398;2022-08-01T06:43:10;2.50;;;1.60;;
8592;SDS011;4334;49.982;8.398;2022-08-01T06:45:37;2.35;;;1.50;;
8592;SDS011;4334;49.982;8.398;2022-08-01T06:48:05;3.92;;;1.60;;
8592;SDS011;4334;49.982;8.398;2022-08-01T06:50:32;2.17;;;1.52;;
8592;SDS011;4334;49.982;8.398;2022-08-01T06:53:00;2.33;;;1.60;;
8592;SDS011;4334;49.982;8.398;2022-08-01T06:55:27;2.15;;;1.70;;
8592;SDS011;4334;49.982;8.398;2022-08-01T06:57:54;2.17;;;1.65;;
8592;SDS011;4334;49.982;8.398;2022-08-01T07:00:21;5.93;;;1.70;;
8592;SDS011;4334;49.982;8.398;2022-08-01T07:02:49;2.00;;;1.52;;
8592;SDS011;4334;49.982;8.398;2022-08-01T07:05:18;1.50;;;1.40;;
8592;SDS011;4334;49.982;8.398;2022-08-01T07:07:45;2.50;;;1.60;;
8592;SDS011;4334;49.982;8.398;2022-08-01T07:10:12;2.35;;;1.45;;
8592;SDS011;4334;49.982;8.398;2022-08-01T07:12:38;1.42;;;1.33;;
8592;SDS011;4334;49.982;8.398;2022-08-01T07:15:06;2.92;;;1.58;;
8592;SDS011;4334;49.982;8.398;2022-08-01T07:17:36;3.00;;;1.38;;
8592;SDS011;4334;49.982;8.398;2022-08-01T07:20:04;2.30;;;1.60;;
8592;SDS011;4334;49.982;8.398;2022-08-01T07:22:33;2.53;;;1.70;;
8592;SDS011;4334;49.982;8.398;2022-08-01T07:25:00;2.50;;;1.65;;
8592;SDS011;4334;49.982;8.398;2022-08-01T07:27:26;1.63;;;1.50;;
8592;SDS011;4334;49.982;8.398;2022-08-01T07:29:53;1.60;;;1.50;;
8592;SDS011;4334;49.982;8.398;2022-08-01T07:32:20;2.42;;;1.60;;
8592;SDS011;4334;49.982;8.398;2022-08-01T07:34:46;5.10;;;1.75;;
8592;SDS011;4334;49.982;8.398;2022-08-01T07:37:13;1.50;;;1.40;;
8592;SDS011;4334;49.982;8.398;2022-08-01T07:39:41;4.63;;;1.67;;
8592;SDS011;4334;49.982;8.398;2022-08-01T07:42:08;3.13;;;1.90;;
8592;SDS011;4334;49.982;8.398;2022-08-01T07:44:35;2.20;;;1.77;;
8592;SDS011;4334;49.982;8.398;2022-08-01T07:47:02;2.45;;;1.67;;
8592;SDS011;4334;49.982;8.398;2022-08-01T07:49:30;2.15;;;1.70;;
8592;SDS011;4334;49.982;8.398;2022-08-01T07:51:56;1.80;;;1.70;;
8592;SDS011;4334;49.982;8.398;2022-08-01T07:54:23;2.63;;;1.70;;
8592;SDS011;4334;49.982;8.398;2022-08-01T07:56:54;2.55;;;1.70;;
8592;SDS011;4334;49.982;8.398;2022-08-01T07:59:20;2.28;;;1.90;;
8592;SDS011;4334;49.982;8.398;2022-08-01T08:01:48;3.45;;;1.80;;
8592;SDS011;4334;49.982;8.398;2022-08-01T08:04:15;2.03;;;1.83;;
8592;SDS011;4334;49.982;8.398;2022-08-01T08:06:42;2.60;;;1.70;;
8592;SDS011;4334;49.982;8.398;2022-08-01T08:16:27;2.13;;;1.92;;
8592;SDS011;4334;49.982;8.398;2022-08-01T08:18:54;3.35;;;1.85;;
8592;SDS011;4334;49.982;8.398;2022-08-01T08:28:52;6.75;;;2.00;;
8592;SDS011;4334;49.982;8.398;2022-08-01T08:31:19;2.40;;;2.20;;
8592;SDS011;4334;49.982;8.398;2022-08-01T08:33:47;2.10;;;1.85;;
8592;SDS011;4334;49.982;8.398;2022-08-01T08:36:14;2.67;;;2.00;;
8592;SDS011;4334;49.982;8.398;2022-08-01T08:38:41;2.75;;;1.85;;
8592;SDS011;4334;49.982;8.398;2022-08-01T08:41:08;4.03;;;1.90;;
8592;SDS011;4334;49.982;8.398;2022-08-01T08:43:35;3.10;;;1.98;;
8592;SDS011;4334;49.982;8.398;2022-08-01T08:46:02;2.97;;;2.17;;
8592;SDS011;4334;49.982;8.398;2022-08-01T08:48:29;3.20;;;2.28;;
8592;SDS011;4334;49.982;8.398;2022-08-01T08:50:58;2.30;;;2.00;;
8592;SDS011;4334;49.982;8.398;2022-08-01T08:53:27;2.92;;;2.15;;
8592;SDS011;4334;49.982;8.398;2022-08-01T08:55:55;3.70;;;1.80;;
8592;SDS011;4334;49.982;8.398;2022-08-01T08:58:24;2.13;;;1.92;;
8592;SDS011;4334;49.982;8.398;2022-08-01T09:00:52;2.45;;;1.90;;
8592;SDS011;4334;49.982;8.398;2022-08-01T09:03:20;2.55;;;1.70;;
8592;SDS011;4334;49.982;8.398;2022-08-01T09:05:47;2.63;;;1.90;;
8592;SDS011;4334;49.982;8.398;2022-08-01T09:08:15;3.17;;;1.80;;
8592;SDS011;4334;49.982;8.398;2022-08-01T09:10:41;3.10;;;2.00;;
8592;SDS011;4334;49.982;8.398;2022-08-01T09:13:09;2.08;;;1.88;;
8592;SDS011;4334;49.982;8.398;2022-08-01T09:15:37;2.22;;;1.83;;
8592;SDS011;4334;49.982;8.398;2022-08-01T09:18:05;2.42;;;1.95;;
8592;SDS011;4334;49.982;8.398;2022-08-01T09:20:32;3.22;;;2.00;;
8592;SDS011;4334;49.982;8.398;2022-08-01T09:23:00;2.63;;;1.98;;
8592;SDS011;4334;49.982;8.398;2022-08-01T09:25:29;2.53;;;2.13;;
8592;SDS011;4334;49.982;8.398;2022-08-01T09:28:03;2.85;;;1.98;;
8592;SDS011;4334;49.982;8.398;2022-08-01T09:30:36;2.25;;;2.00;;
8592;SDS011;4334;49.982;8.398;2022-08-01T09:33:04;2.10;;;1.90;;
8592;SDS011;4334;49.982;8.398;2022-08-01T09:35:31;3.92;;;2.00;;
8592;SDS011;4334;49.982;8.398;2022-08-01T09:38:13;2.92;;;1.95;;
8592;SDS011;4334;49.982;8.398;2022-08-01T09:40:49;2.17;;;1.98;;
8592;SDS011;4334;49.982;8.398;2022-08-01T09:43:18;2.40;;;2.17;;
8592;SDS011;4334;49.982;8.398;2022-08-01T09:45:46;3.47;;;2.00;;
8592;SDS011;4334;49.982;8.398;2022-08-01T09:48:13;2.63;;;2.20;;
8592;SDS011;4334;49.982;8.398;2022-08-01T09:50:41;5.10;;;2.38;;
8592;SDS011;4334;49.982;8.398;2022-08-01T09:53:08;2.38;;;2.17;;
8592;SDS011;4334;49.982;8.398;2022-08-01T09:55:36;2.90;;;2.60;;
8592;SDS011;4334;49.982;8.398;2022-08-01T09:58:04;2.42;;;2.13;;
8592;SDS011;4334;49.982;8.398;2022-08-01T10:00:32;3.78;;;2.42;;
8592;SDS011;4334;49.982;8.398;2022-08-01T10:02:59;2.42;;;2.22;;
8592;SDS011;4334;49.982;8.398;2022-08-01T10:05:43;3.05;;;2.58;;
8592;SDS011;4334;49.982;8.398;2022-08-01T10:08:10;2.95;;;2.33;;
8592;SDS011;4334;49.982;8.398;2022-08-01T10:10:37;2.65;;;2.40;;
8592;SDS011;4334;49.982;8.398;2022-08-01T10:13:05;3.15;;;2.30;;
8592;SDS011;4334;49.982;8.398;2022-08-01T10:15:34;3.10;;;2.20;;
8592;SDS011;4334;49.982;8.398;2022-08-01T10:18:01;3.03;;;2.30;;
8592;SDS011;4334;49.982;8.398;2022-08-01T10:20:31;2.72;;;2.00;;
8592;SDS011;4334;49.982;8.398;2022-08-01T10:22:59;2.30;;;2.10;;
8592;SDS011;4334;49.982;8.398;2022-08-01T10:25:27;2.25;;;2.00;;
8592;SDS011;4334;49.982;8.398;2022-08-01T10:27:59;2.67;;;2.22;;
8592;SDS011;4334;49.982;8.398;2022-08-01T10:30:33;5.07;;;2.40;;
8592;SDS011;4334;49.982;8.398;2022-08-01T10:33:00;3.65;;;2.20;;
8592;SDS011;4334;49.982;8.398;2022-08-01T10:35:27;2.05;;;1.85;;
8592;SDS011;4334;49.982;8.398;2022-08-01T10:37:56;2.13;;;1.83;;
8592;SDS011;4334;49.982;8.398;2022-08-01T10:40:23;2.47;;;1.80;;
8592;SDS011;4334;49.982;8.398;2022-08-01T10:42:50;2.00;;;1.80;;
8592;SDS011;4334;49.982;8.398;2022-08-01T10:45:19;1.73;;;1.63;;
8592;SDS011;4334;49.982;8.398;2022-08-01T10:47:48;2.00;;;1.60;;
8592;SDS011;4334;49.982;8.398;2022-08-01T10:50:24;1.60;;;1.50;;
8592;SDS011;4334;49.982;8.398;2022-08-01T10:53:04;1.80;;;1.60;;
8592;SDS011;4334;49.982;8.398;2022-08-01T10:55:44;1.70;;;1.60;;
8592;SDS011;4334;49.982;8.398;2022-08-01T10:58:19;4.72;;;1.60;;
8592;SDS011;4334;49.982;8.398;2022-08-01T11:00:47;1.60;;;1.50;;
8592;SDS011;4334;49.982;8.398;2022-08-01T11:03:16;1.70;;;1.60;;
8592;SDS011;4334;49.982;8.398;2022-08-01T11:06:00;3.13;;;1.63;;
8592;SDS011;4334;49.982;8.398;2022-08-01T11:08:29;2.00;;;1.80;;
8592;SDS011;4334;49.982;8.398;2022-08-01T11:10:59;1.90;;;1.65;;
8592;SDS011;4334;49.982;8.398;2022-08-01T11:16:32;2.72;;;1.63;;
8592;SDS011;4334;49.982;8.398;2022-08-01T11:19:01;2.00;;;1.80;;
8592;SDS011;4334;49.982;8.398;2022-08-01T11:27:27;1.90;;;1.80;;
8592;SDS011;4334;49.982;8.398;2022-08-01T11:32:52;2.90;;;1.60;;
8592;SDS011;4334;49.982;8.398;2022-08-01T11:35:21;1.70;;;1.60;;
8592;SDS011;4334;49.982;8.398;2022-08-01T11:37:51;2.28;;;1.65;;
8592;SDS011;4334;49.982;8.398;2022-08-01T11:40:21;2.25;;;1.60;;
8592;SDS011;4334;49.982;8.398;2022-08-01T11:42:50;1.95;;;1.50;;
8592;SDS011;4334;49.982;8.398;2022-08-01T11:45:46;2.08;;;1.85;;
8592;SDS011;4334;49.982;8.398;2022-08-01T11:48:17;1.70;;;1.60;;
8592;SDS011;4334;49.982;8.398;2022-08-01T11:50:45;2.10;;;1.90;;
8592;SDS011;4334;49.982;8.398;2022-08-01T11:53:13;1.90;;;1.70;;
8592;SDS011;4334;49.982;8.398;2022-08-01T11:55:43;2.47;;;1.92;;
8592;SDS011;4334;49.982;8.398;2022-08-01T11:58:12;2.00;;;1.90;;
8592;SDS011;4334;49.982;8.398;2022-08-01T12:00:38;2.03;;;1.75;;
8592;SDS011;4334;49.982;8.398;2022-08-01T12:03:06;1.75;;;1.65;;
8592;SDS011;4334;49.982;8.398;2022-08-01T12:05:34;2.10;;;1.63;;
8592;SDS011;4334;49.982;8.398;2022-08-01T12:08:03;1.70;;;1.60;;
8592;SDS011;4334;49.982;8.398;2022-08-01T12:10:31;1.60;;;1.50;;
8592;SDS011;4334;49.982;8.398;2022-08-01T12:13:02;1.83;;;1.60;;
8592;SDS011;4334;49.982;8.398;2022-08-01T12:15:31;2.10;;;1.70;;
8592;SDS011;4334;49.982;8.398;2022-08-01T12:17:59;2.22;;;1.77;;
8592;SDS011;4334;49.982;8.398;2022-08-01T12:20:27;2.92;;;1.70;;
8592;SDS011;4334;49.982;8.398;2022-08-01T12:22:56;1.50;;;1.40;;
8592;SDS011;4334;49.982;8.398;2022-08-01T12:25:25;2.95;;;1.60;;
8592;SDS011;4334;49.982;8.398;2022-08-01T12:27:52;3.65;;;1.70;;
8592;SDS011;4334;49.982;8.398;2022-08-01T12:30:19;3.85;;;1.77;;
8592;SDS011;4334;49.982;8.398;2022-08-01T12:32:48;2.40;;;1.90;;
8592;SDS011;4334;49.982;8.398;2022-08-01T12:35:16;2.25;;;1.65;;
8592;SDS011;4334;49.982;8.398;2022-08-01T12:37:45;3.78;;;1.80;;
8592;SDS011;4334;49.982;8.398;2022-08-01T12:40:14;1.70;;;1.60;;
8592;SDS011;4334;49.982;8.398;2022-08-01T12:42:44;1.70;;;1.60;;
8592;SDS011;4334;49.982;8.398;2022-08-01T12:45:14;1.70;;;1.60;;
8592;SDS011;4334;49.982;8.398;2022-08-01T12:47:43;3.67;;;1.70;;
8592;SDS011;4334;49.982;8.398;2022-08-01T12:50:11;7.05;;;2.00;;
8592;SDS011;4334;49.982;8.398;2022-08-01T12:52:40;2.03;;;1.70;;
8592;SDS011;4334;49.982;8.398;2022-08-01T12:55:08;2.00;;;1.80;;
8592;SDS011;4334;49.982;8.398;2022-08-01T12:57:38;3.55;;;1.73;;
8592;SDS011;4334;49.982;8.398;2022-08-01T13:00:09;2.30;;;1.75;;
8592;SDS011;4334;49.982;8.398;2022-08-01T13:02:38;1.67;;;1.58;;
8592;SDS011;4334;49.982;8.398;2022-08-01T13:05:05;2.67;;;1.70;;
8592;SDS011;4334;49.982;8.398;2022-08-01T13:07:37;2.13;;;1.85;;
8592;SDS011;4334;49.982;8.398;2022-08-01T13:10:07;4.72;;;2.03;;
8592;SDS011;4334;49.982;8.398;2022-08-01T13:12:34;3.08;;;1.83;;
8592;SDS011;4334;49.982;8.398;2022-08-01T13:17:46;2.17;;;1.60;;
8592;SDS011;4334;49.982;8.398;2022-08-01T13:20:30;2.28;;;1.85;;
8592;SDS011;4334;49.982;8.398;2022-08-01T13:25:50;2.13;;;1.80;;
8592;SDS011;4334;49.982;8.398;2022-08-01T13:28:19;1.95;;;1.60;;
8592;SDS011;4334;49.982;8.398;2022-08-01T13:30:56;1.88;;;1.73;;
8592;SDS011;4334;49.982;8.398;2022-08-01T13:33:25;1.98;;;1.77;;
8592;SDS011;4334;49.982;8.398;2022-08-01T13:35:53;1.80;;;1.70;;
8592;SDS011;4334;49.982;8.398;2022-08-01T13:38:21;2.00;;;1.80;;
8592;SDS011;4334;49.982;8.398;2022-08-01T13:41:08;2.45;;;1.80;;
8592;SDS011;4334;49.982;8.398;2022-08-01T13:43:35;1.83;;;1.70;;
8592;SDS011;4334;49.982;8.398;2022-08-01T13:46:03;2.92;;;1.90;;
8592;SDS011;4334;49.982;8.398;2022-08-01T13:48:31;2.40;;;1.70;;
8592;SDS011;4334;49.982;8.398;2022-08-01T13:50:58;1.90;;;1.80;;
8592;SDS011;4334;49.982;8.398;2022-08-01T13:53:25;2.33;;;2.00;;
8592;SDS011;4334;49.982;8.398;2022-08-01T13:55:53;3.00;;;2.00;;
8592;SDS011;4334;49.982;8.398;2022-08-01T13:58:20;1.90;;;1.80;;
8592;SDS011;4334;49.982;8.398;2022-08-01T14:00:47;2.28;;;2.08;;
8592;SDS011;4334;49.982;8.398;2022-08-01T14:03:15;1.98;;;1.70;;
8592;SDS011;4334;49.982;8.398;2022-08-01T14:05:42;2.95;;;2.13;;
8592;SDS011;4334;49.982;8.398;2022-08-01T14:08:10;2.08;;;1.90;;
8592;SDS011;4334;49.982;8.398;2022-08-01T14:10:37;2.08;;;1.88;;
8592;SDS011;4334;49.982;8.398;2022-08-01T14:13:05;2.55;;;2.08;;
8592;SDS011;4334;49.982;8.398;2022-08-01T14:15:32;2.50;;;2.25;;
8592;SDS011;4334;49.982;8.398;2022-08-01T14:17:59;2.42;;;2.13;;
8592;SDS011;4334;49.982;8.398;2022-08-01T14:20:27;2.35;;;2.15;;
8592;SDS011;4334;49.982;8.398;2022-08-01T14:22:54;2.42;;;2.00;;
8592;SDS011;4334;49.982;8.398;2022-08-01T14:25:21;2.05;;;1.88;;
8592;SDS011;4334;49.982;8.398;2022-08-01T14:27:48;4.45;;;2.10;;
8592;SDS011;4334;49.982;8.398;2022-08-01T14:30:15;2.30;;;2.10;;
8592;SDS011;4334;49.982;8.398;2022-08-01T14:32:42;2.13;;;1.92;;
8592;SDS011;4334;49.982;8.398;2022-08-01T14:35:09;2.17;;;1.98;;
8592;SDS011;4334;49.982;8.398;2022-08-01T14:37:37;6.13;;;1.83;;
8592;SDS011;4334;49.982;8.398;2022-08-01T14:40:05;1.98;;;1.80;;
8592;SDS011;4334;49.982;8.398;2022-08-01T14:42:35;1.80;;;1.70;;
8592;SDS011;4334;49.982;8.398;2022-08-01T14:45:04;4.43;;;2.00;;
8592;SDS011;4334;49.982;8.398;2022-08-01T14:47:33;3.50;;;2.05;;
8592;SDS011;4334;49.982;8.398;2022-08-01T14:50:01;2.10;;;1.90;;
8592;SDS011;4334;49.982;8.398;2022-08-01T14:52:28;2.40;;;2.20;;
8592;SDS011;4334;49.982;8.398;2022-08-01T14:54:56;2.40;;;2.20;;
8592;SDS011;4334;49.982;8.398;2022-08-01T14:57:23;2.33;;;2.13;;
8592;SDS011;4334;49.982;8.398;2022-08-01T14:59:50;4.43;;;2.40;;
8592;SDS011;4334;49.982;8.398;2022-08-01T15:02:17;2.95;;;2.20;;
8592;SDS011;4334;49.982;8.398;2022-08-01T15:04:44;2.53;;;2.20;;
8592;SDS011;4334;49.982;8.398;2022-08-01T15:07:11;2.50;;;2.30;;
8592;SDS011;4334;49.982;8.398;2022-08-01T15:09:38;5.30;;;2.58;;
8592;SDS011;4334;49.982;8.398;2022-08-01T15:12:07;2.88;;;2.53;;
8592;SDS011;4334;49.982;8.398;2022-08-01T15:14:35;2.83;;;2.50;;
8592;SDS011;4334;49.982;8.398;2022-08-01T15:17:14;5.20;;;2.60;;
8592;SDS011;4334;49.982;8.398;2022-08-01T15:19:41;2.60;;;2.40;;
8592;SDS011;4334;49.982;8.398;2022-08-01T15:22:08;5.05;;;2.65;;
8592;SDS011;4334;49.982;8.398;2022-08-01T15:24:35;2.90;;;2.70;;
8592;SDS011;4334;49.982;8.398;2022-08-01T15:27:03;2.47;;;2.28;;
8592;SDS011;4334;49.982;8.398;2022-08-01T15:29:31;4.03;;;2.55;;
8592;SDS011;4334;49.982;8.398;2022-08-01T15:31:59;3.15;;;2.20;;
8592;SDS011;4334;49.982;8.398;2022-08-01T15:34:25;3.35;;;2.47;;
8592;SDS011;4334;49.982;8.398;2022-08-01T15:36:52;3.83;;;2.40;;
8592;SDS011;4334;49.982;8.398;2022-08-01T15:39:19;2.92;;;2.22;;
8592;SDS011;4334;49.982;8.398;2022-08-01T15:41:46;8.05;;;2.45;;
8592;SDS011;4334;49.982;8.398;2022-08-01T15:44:13;5.22;;;2.40;;
8592;SDS011;4334;49.982;8.398;2022-08-01T15:46:41;5.95;;;2.63;;
8592;SDS011;4334;49.982;8.398;2022-08-01T15:49:08;2.58;;;2.38;;
8592;SDS011;4334;49.982;8.398;2022-08-01T15:51:35;4.60;;;2.50;;
8592;SDS011;4334;49.982;8.398;2022-08-01T15:54:02;6.45;;;2.25;;
8592;SDS011;4334;49.982;8.398;2022-08-01T15:56:31;2.80;;;2.17;;